createdAt,value
2022-09-20T00:01:50.458Z,70.22
2022-09-20T00:04:35.844Z,70.25
2022-09-20T00:07:21.100Z,70.04
2022-09-20T00:10:06.457Z,70.22
2022-09-20T00:12:52.384Z,70.28
2022-09-20T00:15:43.779Z,70.10
2022-09-20T00:18:29.494Z,70.17
2022-09-20T00:21:17.147Z,70.16
2022-09-20T00:24:03.151Z,70.19
2022-09-20T00:26:48.841Z,70.14
2022-09-20T00:29:34.084Z,70.17
2022-09-20T00:32:19.578Z,70.15
2022-09-20T00:35:08.522Z,70.10
2022-09-20T00:37:53.984Z,70.25
2022-09-20T00:40:44.289Z,70.23
2022-09-20T00:43:41.454Z,70.33
2022-09-20T00:46:35.885Z,70.14
2022-09-20T00:49:27.624Z,70.10
2022-09-20T00:52:13.423Z,70.29
2022-09-20T00:55:01.031Z,70.29
2022-09-20T00:57:46.897Z,70.09
2022-09-20T01:00:32.415Z,70.14
2022-09-20T01:03:22.976Z,70.04
2022-09-20T01:06:13.783Z,70.08
2022-09-20T01:09:03.108Z,70.12
2022-09-20T01:11:50.663Z,70.20
2022-09-20T01:14:36.224Z,70.08
2022-09-20T01:17:24.980Z,70.17
2022-09-20T01:20:24.870Z,70.11
2022-09-20T01:23:32.093Z,70.28
2022-09-20T01:26:37.699Z,70.29
2022-09-20T01:30:03.223Z,70.24
2022-09-20T01:33:06.833Z,70.29
2022-09-20T01:35:54.311Z,70.12
2022-09-20T01:38:54.959Z,70.41
2022-09-20T01:41:57.484Z,70.19
2022-09-20T01:45:18.197Z,70.01
2022-09-20T01:48:39.382Z,70.21
2022-09-20T01:51:45.990Z,70.16
2022-09-20T01:54:58.083Z,70.20
2022-09-20T01:57:56.942Z,70.03
2022-09-20T02:01:14.757Z,70.03
2022-09-20T02:04:22.201Z,70.00
2022-09-20T02:07:23.002Z,70.17
2022-09-20T02:10:47.311Z,70.06
2022-09-20T02:13:53.710Z,70.01
2022-09-20T02:16:55.777Z,70.02
2022-09-20T02:19:53.276Z,70.07
2022-09-20T02:22:41.473Z,70.02
2022-09-20T02:25:45.635Z,70.02
2022-09-20T02:28:49.442Z,69.96
2022-09-20T02:31:53.197Z,70.23
2022-09-20T02:35:20.076Z,70.00
2022-09-20T02:38:43.197Z,70.13
2022-09-20T02:42:06.435Z,70.03
2022-09-20T02:45:04.250Z,69.85
2022-09-20T02:47:49.799Z,69.90
2022-09-20T02:50:35.327Z,70.05
2022-09-20T02:53:35.950Z,69.84
2022-09-20T02:56:32.762Z,70.05
2022-09-20T02:59:25.845Z,69.82
2022-09-20T03:02:25.006Z,69.81
2022-09-20T03:05:26.574Z,69.72
2022-09-20T03:08:28.226Z,69.74
2022-09-20T03:11:25.849Z,69.86
2022-09-20T03:14:10.878Z,69.91
2022-09-20T03:17:24.286Z,70.08
2022-09-20T03:20:31.685Z,70.34
2022-09-20T03:23:28.473Z,70.16
2022-09-20T03:26:31.382Z,70.06
2022-09-20T03:29:37.180Z,70.22
2022-09-20T03:33:00.233Z,70.32
2022-09-20T03:35:48.430Z,70.28
2022-09-20T03:38:46.252Z,70.46
2022-09-20T03:41:37.155Z,70.42
2022-09-20T03:44:50.642Z,70.39
2022-09-20T03:48:01.059Z,70.32
2022-09-20T03:51:04.449Z,70.46
2022-09-20T03:54:12.350Z,70.33
2022-09-20T03:57:28.752Z,70.81
2022-09-20T04:00:38.564Z,71.59
2022-09-20T04:03:35.520Z,71.50
2022-09-20T04:06:59.404Z,71.38
2022-09-20T04:09:53.777Z,71.71
2022-09-20T04:12:50.164Z,72.06
2022-09-20T04:16:23.390Z,72.05
2022-09-20T04:19:33.391Z,71.78
2022-09-20T04:22:22.754Z,72.15
2022-09-20T04:25:20.020Z,71.66
2022-09-20T04:28:14.019Z,71.58
2022-09-20T04:31:07.199Z,71.03
2022-09-20T04:33:57.438Z,70.92
2022-09-20T04:37:05.076Z,70.73
2022-09-20T04:40:05.655Z,70.87
2022-09-20T04:43:06.567Z,70.77
2022-09-20T04:46:06.888Z,71.10
2022-09-20T04:49:13.841Z,70.85
2022-09-20T04:52:04.151Z,71.34
2022-09-20T04:55:04.626Z,71.71
2022-09-20T04:58:09.149Z,72.21
2022-09-20T05:01:17.153Z,72.60
2022-09-20T05:04:18.436Z,72.15
2022-09-20T05:07:09.823Z,71.71
2022-09-20T05:10:24.402Z,71.38
2022-09-20T05:13:15.903Z,71.07
2022-09-20T05:16:23.218Z,70.82
2022-09-20T05:19:23.810Z,70.73
2022-09-20T05:22:27.948Z,70.66
2022-09-20T05:25:46.866Z,70.38
2022-09-20T05:28:53.751Z,70.44
2022-09-20T05:32:18.371Z,70.46
2022-09-20T05:35:14.840Z,70.40
2022-09-20T05:38:13.598Z,70.33
2022-09-20T05:41:19.017Z,70.32
2022-09-20T05:44:19.859Z,70.24
2022-09-20T05:47:26.333Z,70.34
2022-09-20T05:50:29.702Z,70.28
2022-09-20T05:53:39.418Z,70.26
2022-09-20T05:56:43.069Z,70.09
2022-09-20T05:59:49.477Z,70.23
2022-09-20T06:02:52.173Z,70.22
2022-09-20T06:05:40.480Z,70.24
2022-09-20T06:08:46.012Z,70.04
2022-09-20T06:11:56.339Z,69.96
2022-09-20T06:14:42.134Z,70.03
2022-09-20T06:18:05.186Z,70.06
2022-09-20T06:21:04.028Z,70.07
2022-09-20T06:23:49.624Z,69.83
2022-09-20T06:26:37.400Z,70.00
2022-09-20T06:29:31.075Z,70.04
2022-09-20T06:32:17.670Z,70.06
2022-09-20T06:35:04.645Z,69.95
2022-09-20T06:38:22.899Z,69.98
2022-09-20T06:41:28.610Z,69.86
2022-09-20T06:44:14.760Z,69.84
2022-09-20T06:47:00.217Z,69.98
2022-09-20T06:49:46.793Z,69.75
2022-09-20T06:52:32.967Z,69.95
2022-09-20T06:55:29.316Z,69.76
2022-09-20T06:58:15.291Z,69.71
2022-09-20T07:01:00.511Z,69.74
2022-09-20T07:03:45.993Z,69.82
2022-09-20T07:06:31.222Z,69.53
2022-09-20T07:09:17.218Z,69.66
2022-09-20T07:12:02.866Z,69.77
2022-09-20T07:14:48.124Z,69.60
2022-09-20T07:17:33.884Z,69.64
2022-09-20T07:20:21.441Z,69.50
2022-09-20T07:23:06.875Z,69.43
2022-09-20T07:25:52.833Z,69.47
2022-09-20T07:28:38.289Z,69.58
2022-09-20T07:31:25.589Z,69.62
2022-09-20T07:34:11.115Z,69.60
2022-09-20T07:36:57.339Z,69.51
2022-09-20T07:39:42.949Z,69.63
2022-09-20T07:42:29.129Z,69.40
2022-09-20T07:45:14.525Z,69.41
2022-09-20T07:48:02.534Z,69.31
2022-09-20T07:50:59.198Z,69.52
2022-09-20T07:53:44.758Z,69.29
2022-09-20T07:56:29.880Z,69.28
2022-09-20T07:59:15.675Z,69.28
2022-09-20T08:02:01.133Z,69.65
2022-09-20T08:04:49.920Z,69.56
2022-09-20T08:07:35.209Z,69.53
2022-09-20T08:10:20.396Z,69.31
2022-09-20T08:16:14.110Z,69.27
2022-09-20T08:19:02.831Z,69.38
2022-09-20T08:21:50.324Z,69.26
2022-09-20T08:24:35.705Z,69.54
2022-09-20T08:27:20.940Z,69.30
2022-09-20T08:30:06.850Z,69.18
2022-09-20T08:32:55.430Z,69.28
2022-09-20T08:35:40.548Z,69.25
2022-09-20T08:41:48.626Z,69.04
2022-09-20T08:44:36.946Z,69.10
2022-09-20T08:47:26.389Z,68.94
2022-09-20T08:50:18.704Z,69.00
2022-09-20T08:53:05.245Z,69.29
2022-09-20T08:55:50.540Z,69.06
2022-09-20T08:58:36.518Z,69.31
2022-09-20T09:01:25.974Z,69.17
2022-09-20T09:04:13.417Z,69.19
2022-09-20T09:06:58.661Z,69.22
2022-09-20T09:09:46.662Z,69.05
2022-09-20T09:12:35.759Z,69.33
2022-09-20T09:15:43.529Z,69.22
2022-09-20T09:18:51.712Z,69.05
2022-09-20T09:21:37.223Z,69.16
2022-09-20T09:24:24.888Z,69.10
2022-09-20T09:27:19.188Z,69.05
2022-09-20T09:30:20.697Z,69.19
2022-09-20T09:33:23.416Z,69.26
2022-09-20T09:36:15.164Z,69.23
2022-09-20T09:39:38.048Z,69.11
2022-09-20T09:42:28.805Z,69.28
2022-09-20T09:45:41.027Z,69.14
2022-09-20T09:48:31.188Z,69.16
2022-09-20T09:51:19.903Z,68.90
2022-09-20T09:54:07.817Z,69.01
2022-09-20T09:57:02.398Z,69.14
2022-09-20T10:00:02.621Z,69.00
2022-09-20T10:03:11.945Z,69.01
2022-09-20T10:06:12.547Z,68.86
2022-09-20T10:09:16.619Z,68.87
2022-09-20T10:12:14.773Z,69.00
2022-09-20T10:15:13.358Z,68.73
2022-09-20T10:18:08.559Z,69.00
2022-09-20T10:21:15.850Z,68.87
2022-09-20T10:24:13.694Z,69.24
2022-09-20T10:27:48.297Z,68.93
2022-09-20T10:30:58.415Z,68.99
2022-09-20T10:34:16.460Z,68.76
2022-09-20T10:37:02.211Z,68.85
2022-09-20T10:39:59.256Z,68.76
2022-09-20T10:43:09.703Z,68.75
2022-09-20T10:46:36.438Z,68.90
2022-09-20T10:49:39.611Z,68.89
2022-09-20T10:52:42.415Z,68.84
2022-09-20T10:55:47.386Z,68.77
2022-09-20T10:58:49.354Z,68.81
2022-09-20T11:02:06.275Z,68.59
2022-09-20T11:05:26.117Z,68.76
2022-09-20T11:08:13.924Z,68.90
2022-09-20T11:11:10.557Z,68.94
2022-09-20T11:14:20.282Z,68.90
2022-09-20T11:17:18.659Z,68.84
2022-09-20T11:20:15.287Z,69.04
2022-09-20T11:23:10.353Z,68.79
2022-09-20T11:26:02.057Z,68.87
2022-09-20T11:28:54.110Z,68.98
2022-09-20T11:31:46.256Z,68.85
2022-09-20T11:34:37.318Z,68.86
2022-09-20T11:37:30.314Z,68.85
2022-09-20T11:40:30.297Z,68.84
2022-09-20T11:43:18.412Z,68.79
2022-09-20T11:46:07.869Z,68.69
2022-09-20T11:49:04.712Z,68.83
2022-09-20T11:52:09.301Z,68.73
2022-09-20T11:55:10.845Z,68.73
2022-09-20T11:58:06.861Z,68.66
2022-09-20T12:00:56.616Z,68.87
2022-09-20T12:03:50.962Z,68.74
2022-09-20T12:06:39.995Z,68.82
2022-09-20T12:09:30.538Z,68.85
2022-09-20T12:12:23.211Z,68.69
2022-09-20T12:15:27.673Z,68.75
2022-09-20T12:18:33.044Z,68.61
2022-09-20T12:21:20.764Z,68.71
2022-09-20T12:24:19.069Z,68.16
2022-09-20T12:27:43.991Z,68.25
2022-09-20T12:30:30.962Z,68.10
2022-09-20T12:33:20.821Z,67.80
2022-09-20T12:36:16.296Z,68.34
2022-09-20T12:39:17.554Z,68.33
2022-09-20T12:42:12.263Z,68.13
2022-09-20T12:45:17.613Z,68.09
2022-09-20T12:48:03.199Z,67.89
2022-09-20T12:51:43.098Z,68.17
2022-09-20T12:54:28.609Z,68.67
2022-09-20T12:57:23.839Z,68.97
2022-09-20T13:00:36.309Z,69.78
2022-09-20T13:03:31.980Z,69.74
2022-09-20T13:06:20.682Z,68.88
2022-09-20T13:09:09.463Z,69.46
2022-09-20T13:12:01.006Z,68.97
2022-09-20T13:14:47.516Z,69.12
2022-09-20T13:17:35.027Z,68.84
2022-09-20T13:20:34.990Z,68.81
2022-09-20T13:23:26.866Z,68.54
2022-09-20T13:26:13.572Z,68.49
2022-09-20T13:29:01.801Z,68.68
2022-09-20T13:31:47.544Z,68.64
2022-09-20T13:34:33.158Z,68.48
2022-09-20T13:37:23.796Z,68.57
2022-09-20T13:40:20.971Z,68.67
2022-09-20T13:43:24.444Z,69.01
2022-09-20T13:46:16.466Z,69.06
2022-09-20T13:49:20.939Z,69.23
2022-09-20T13:52:24.268Z,69.30
2022-09-20T13:55:27.374Z,68.42
2022-09-20T13:58:24.194Z,68.18
2022-09-20T14:01:32.292Z,68.57
2022-09-20T14:04:23.787Z,68.38
2022-09-20T14:07:10.103Z,68.23
2022-09-20T14:09:56.683Z,68.67
2022-09-20T14:12:49.585Z,68.85
2022-09-20T14:15:39.146Z,68.77
2022-09-20T14:18:24.911Z,68.80
2022-09-20T14:21:11.970Z,68.54
2022-09-20T14:24:23.840Z,68.83
2022-09-20T14:27:16.704Z,68.62
2022-09-20T14:30:03.867Z,68.42
2022-09-20T14:32:56.487Z,68.32
2022-09-20T14:35:48.869Z,66.35
2022-09-20T14:38:34.214Z,67.96
2022-09-20T14:41:40.443Z,68.06
2022-09-20T14:44:33.761Z,68.20
2022-09-20T14:47:37.995Z,68.11
2022-09-20T14:50:36.726Z,67.88
2022-09-20T14:53:26.878Z,67.86
2022-09-20T14:56:15.392Z,67.87
2022-09-20T14:59:08.062Z,67.84
2022-09-20T15:02:14.794Z,67.91
2022-09-20T15:05:00.950Z,67.76
2022-09-20T15:07:47.713Z,67.85
2022-09-20T15:10:32.932Z,67.65
2022-09-20T15:13:18.574Z,68.00
2022-09-20T15:16:04.197Z,67.83
2022-09-20T15:18:49.642Z,68.27
2022-09-20T15:21:35.138Z,68.16
2022-09-20T15:24:20.597Z,68.17
2022-09-20T15:27:07.148Z,68.23
2022-09-20T15:29:52.563Z,68.27
2022-09-20T15:32:37.990Z,68.21
2022-09-20T15:35:23.641Z,68.34
2022-09-20T15:38:11.674Z,68.35
2022-09-20T15:41:00.724Z,68.20
2022-09-20T15:43:47.235Z,68.27
2022-09-20T15:46:33.365Z,68.47
2022-09-20T15:49:18.938Z,69.02
2022-09-20T15:52:05.313Z,69.02
2022-09-20T15:54:51.801Z,69.15
2022-09-20T15:57:37.073Z,69.10
2022-09-20T16:00:22.442Z,69.84
2022-09-20T16:03:08.050Z,69.79
2022-09-20T16:06:04.415Z,70.28
2022-09-20T16:08:50.865Z,70.38
2022-09-20T16:11:37.330Z,70.45
2022-09-20T16:14:22.907Z,70.28
2022-09-20T16:17:09.719Z,70.36
2022-09-20T16:19:55.341Z,70.53
2022-09-20T16:22:41.251Z,70.60
2022-09-20T16:25:26.766Z,70.35
2022-09-20T16:28:14.070Z,70.06
2022-09-20T16:31:00.540Z,69.61
2022-09-20T16:33:45.690Z,68.83
2022-09-20T16:36:32.994Z,69.04
2022-09-20T16:39:19.613Z,69.01
2022-09-20T16:42:07.506Z,69.49
2022-09-20T16:44:53.134Z,69.45
2022-09-20T16:47:41.042Z,69.96
2022-09-20T16:50:26.365Z,70.11
2022-09-20T16:53:11.673Z,70.02
2022-09-20T16:55:56.938Z,70.11
2022-09-20T16:58:44.489Z,69.57
2022-09-20T17:01:31.965Z,69.33
2022-09-20T17:04:19.142Z,69.60
2022-09-20T17:07:05.798Z,69.21
2022-09-20T17:09:51.632Z,69.17
2022-09-20T17:12:42.623Z,69.20
2022-09-20T17:15:28.524Z,69.28
2022-09-20T17:18:15.724Z,69.17
2022-09-20T17:21:15.615Z,68.97
2022-09-20T17:24:01.073Z,68.79
2022-09-20T17:26:46.704Z,68.73
2022-09-20T17:29:32.089Z,68.53
2022-09-20T17:32:19.448Z,68.33
2022-09-20T17:35:05.883Z,68.48
2022-09-20T17:37:52.028Z,68.28
2022-09-20T17:40:37.489Z,68.36
2022-09-20T17:43:22.843Z,67.94
2022-09-20T17:46:12.015Z,68.15
2022-09-20T17:49:01.179Z,68.17
2022-09-20T17:51:52.058Z,68.21
2022-09-20T17:54:37.583Z,68.18
2022-09-20T17:57:24.456Z,68.06
2022-09-20T18:00:10.662Z,67.89
2022-09-20T18:02:56.128Z,67.96
2022-09-20T18:05:41.530Z,67.87
2022-09-20T18:08:26.799Z,67.78
2022-09-20T18:11:12.186Z,67.62
2022-09-20T18:13:58.739Z,67.46
2022-09-20T18:16:44.423Z,67.58
2022-09-20T18:19:33.946Z,67.74
2022-09-20T18:22:19.761Z,67.97
2022-09-20T18:25:05.321Z,67.93
2022-09-20T18:27:50.908Z,67.89
2022-09-20T18:30:36.017Z,67.72
2022-09-20T18:33:21.213Z,68.17
2022-09-20T18:36:06.802Z,68.15
2022-09-20T18:38:54.910Z,68.12
2022-09-20T18:41:41.317Z,67.92
2022-09-20T18:44:33.805Z,67.90
2022-09-20T18:47:19.522Z,67.92
2022-09-20T18:50:05.598Z,67.94
2022-09-20T18:52:51.344Z,67.93
2022-09-20T18:55:37.664Z,67.78
2022-09-20T18:58:24.564Z,67.79
2022-09-20T19:01:36.664Z,67.87
2022-09-20T19:04:35.505Z,67.95
2022-09-20T19:07:50.744Z,67.97
2022-09-20T19:10:46.843Z,67.51
2022-09-20T19:13:50.573Z,67.80
2022-09-20T19:16:41.804Z,67.97
2022-09-20T19:19:56.204Z,67.85
2022-09-20T19:22:49.191Z,67.78
2022-09-20T19:25:47.479Z,67.78
2022-09-20T19:28:33.275Z,67.65
2022-09-20T19:31:33.317Z,67.61
2022-09-20T19:34:21.392Z,67.73
2022-09-20T19:37:24.985Z,67.59
2022-09-20T19:40:26.125Z,67.61
2022-09-20T19:43:27.912Z,67.45
2022-09-20T19:47:01.456Z,67.64
2022-09-20T19:49:55.285Z,67.60
2022-09-20T19:52:41.341Z,67.44
2022-09-20T19:55:27.068Z,67.44
2022-09-20T19:58:14.339Z,67.61
2022-09-20T20:00:59.833Z,67.38
2022-09-20T20:03:47.873Z,67.54
2022-09-20T20:07:19.440Z,67.40
2022-09-20T20:10:31.420Z,67.46
2022-09-20T20:14:00.023Z,67.45
2022-09-20T20:17:22.919Z,67.44
2022-09-20T20:20:17.852Z,66.99
2022-09-20T20:23:15.591Z,66.83
2022-09-20T20:26:22.150Z,67.27
2022-09-20T20:29:09.980Z,67.25
2022-09-20T20:31:55.152Z,67.19
2022-09-20T20:34:40.611Z,67.54
2022-09-20T20:37:28.175Z,67.51
2022-09-20T20:40:14.038Z,67.41
2022-09-20T20:43:02.026Z,67.49
2022-09-20T20:45:51.023Z,67.49
2022-09-20T20:48:37.161Z,67.33
2022-09-20T20:51:22.947Z,67.35
2022-09-20T20:54:10.054Z,67.46
2022-09-20T20:56:55.297Z,67.47
2022-09-20T20:59:40.511Z,67.52
2022-09-20T21:02:25.843Z,67.37
2022-09-20T21:05:10.975Z,67.30
2022-09-20T21:07:57.821Z,67.55
2022-09-20T21:10:42.985Z,67.25
2022-09-20T21:13:30.049Z,67.36
2022-09-20T21:16:18.053Z,67.52
2022-09-20T21:19:04.912Z,67.40
2022-09-20T21:21:50.454Z,67.24
2022-09-20T21:24:35.849Z,67.50
2022-09-20T21:27:21.185Z,67.50
2022-09-20T21:30:07.313Z,67.28
2022-09-20T21:32:56.098Z,67.32
2022-09-20T21:35:41.374Z,67.34
2022-09-20T21:38:30.395Z,67.44
2022-09-20T21:41:19.871Z,67.41
2022-09-20T21:44:06.535Z,67.33
2022-09-20T21:46:51.806Z,67.21
2022-09-20T21:49:36.936Z,67.49
2022-09-20T21:52:22.144Z,67.25
2022-09-20T21:55:10.736Z,67.33
2022-09-20T21:57:56.229Z,67.10
2022-09-20T22:00:41.552Z,67.46
2022-09-20T22:03:35.047Z,67.34
2022-09-20T22:06:32.397Z,67.44
2022-09-20T22:09:19.343Z,67.53
2022-09-20T22:12:04.953Z,67.33
2022-09-20T22:14:50.285Z,67.27
2022-09-20T22:17:35.628Z,67.07
2022-09-20T22:20:20.945Z,67.18
2022-09-20T22:23:06.082Z,67.36
2022-09-20T22:25:59.514Z,67.26
2022-09-20T22:28:45.151Z,67.28
2022-09-20T22:31:32.711Z,67.22
2022-09-20T22:34:22.464Z,67.32
2022-09-20T22:37:07.902Z,67.29
2022-09-20T22:39:53.061Z,67.25
2022-09-20T22:42:38.217Z,67.32
2022-09-20T22:45:23.730Z,67.15
2022-09-20T22:48:09.144Z,67.57
2022-09-20T22:51:18.419Z,67.15
2022-09-20T22:54:09.149Z,67.25
2022-09-20T22:56:54.212Z,67.97
2022-09-20T22:59:39.614Z,67.18
2022-09-20T23:02:24.863Z,67.38
2022-09-20T23:05:10.990Z,67.58
2022-09-20T23:07:56.641Z,67.21
2022-09-20T23:10:41.811Z,67.35
2022-09-20T23:13:27.079Z,67.11
2022-09-20T23:16:12.595Z,67.33
2022-09-20T23:19:00.102Z,67.33
2022-09-20T23:21:45.648Z,67.21
2022-09-20T23:24:31.144Z,67.22
2022-09-20T23:27:16.750Z,67.02
2022-09-20T23:30:01.964Z,67.20
2022-09-20T23:32:47.998Z,67.32
2022-09-20T23:35:34.234Z,67.20
2022-09-20T23:38:19.355Z,67.11
2022-09-20T23:41:06.771Z,67.17
2022-09-20T23:43:52.218Z,67.21
2022-09-20T23:46:38.812Z,67.12
2022-09-20T23:49:24.236Z,67.28
2022-09-20T23:52:09.431Z,67.30
2022-09-20T23:54:54.634Z,67.25
2022-09-20T23:57:39.887Z,67.29
